Time;durP1;ratioP1;P1;durP2;ratioP2;P2;SDS_P1;SDS_P2;PMS_P1;PMS_P2;Temp;Humidity;BMP_temperature;BMP_pressure;BME280_temperature;BME280_humidity;BME280_pressure;Samples;Min_cycle;Max_cycle;Signal;HPM_P1;HPM_P2
2023/12/19 00:01:55;;;;;;;37.03;31.27;;;4.20;99.90;;;;;;5247305;28;20036;-82
2023/12/19 00:04:25;;;;;;;33.53;28.02;;;4.10;99.90;;;;;;5247081;28;20472;-86
2023/12/19 00:06:56;;;;;;;36.28;28.88;;;4.10;99.90;;;;;;5229514;28;20437;-84
2023/12/19 00:12:08;;;;;;;39.00;29.35;;;3.90;99.90;;;;;;5405877;22;20085;-85
2023/12/19 00:14:39;;;;;;;35.50;28.25;;;4.00;99.90;;;;;;5268261;28;20028;-77
2023/12/19 00:17:10;;;;;;;37.40;28.05;;;4.00;99.90;;;;;;5269407;28;20078;-83
2023/12/19 00:19:40;;;;;;;34.00;26.40;;;3.90;99.90;;;;;;5272656;28;20016;-87
2023/12/19 00:22:11;;;;;;;32.85;26.98;;;4.00;99.90;;;;;;5272372;28;20070;-85
2023/12/19 00:24:42;;;;;;;31.73;26.35;;;4.10;99.90;;;;;;5270820;28;20083;-85
2023/12/19 00:27:13;;;;;;;31.83;28.38;;;4.10;99.90;;;;;;5272306;28;20024;-77
2023/12/19 00:29:44;;;;;;;31.60;26.75;;;4.10;99.90;;;;;;5272578;28;20036;-76
2023/12/19 00:32:15;;;;;;;31.50;26.50;;;3.90;99.90;;;;;;5272272;28;20035;-86
2023/12/19 00:34:46;;;;;;;35.67;27.55;;;3.90;99.90;;;;;;5272242;28;20489;-79
2023/12/19 00:37:16;;;;;;;33.05;27.42;;;4.00;99.90;;;;;;5272069;28;20020;-77
2023/12/19 00:39:47;;;;;;;34.33;26.63;;;3.80;99.90;;;;;;5271690;28;20020;-84
2023/12/19 00:42:18;;;;;;;29.80;25.25;;;3.90;99.90;;;;;;5272020;28;20031;-84
2023/12/19 00:44:49;;;;;;;32.80;27.20;;;3.80;99.90;;;;;;5270513;28;20047;-83
2023/12/19 00:47:20;;;;;;;28.95;24.65;;;3.70;99.90;;;;;;5270916;28;20032;-86
2023/12/19 00:49:51;;;;;;;30.00;26.42;;;3.90;99.90;;;;;;5271511;28;20158;-87
2023/12/19 00:52:22;;;;;;;33.63;26.13;;;3.70;99.90;;;;;;5270483;28;20395;-80
2023/12/19 00:54:53;;;;;;;33.80;25.95;;;3.70;99.90;;;;;;5271574;28;20020;-82
2023/12/19 00:57:23;;;;;;;29.38;25.63;;;3.70;99.90;;;;;;5270480;28;20035;-79
2023/12/19 00:59:54;;;;;;;28.30;24.90;;;3.80;99.90;;;;;;5270334;28;20805;-86
2023/12/19 01:02:27;;;;;;;33.63;25.38;;;3.90;99.90;;;;;;5271672;28;20028;-86
2023/12/19 01:04:58;;;;;;;30.50;24.80;;;3.70;99.90;;;;;;5271735;28;20024;-76
2023/12/19 01:07:29;;;;;;;28.55;25.35;;;3.90;99.90;;;;;;5270140;28;20016;-82
2023/12/19 01:10:00;;;;;;;29.52;25.10;;;3.80;99.90;;;;;;5269617;28;20413;-87
2023/12/19 01:12:30;;;;;;;33.00;26.30;;;3.70;99.90;;;;;;5269956;28;20554;-87
2023/12/19 01:15:02;;;;;;;29.30;24.77;;;3.70;99.90;;;;;;5271206;28;20024;-77
2023/12/19 01:17:32;;;;;;;30.58;24.17;;;3.70;99.90;;;;;;5271384;28;20036;-81
2023/12/19 01:20:04;;;;;;;28.33;25.23;;;3.80;99.90;;;;;;5271199;28;20024;-83
2023/12/19 01:22:35;;;;;;;28.13;24.95;;;3.80;99.90;;;;;;5271251;28;20517;-85
2023/12/19 01:25:07;;;;;;;31.40;26.58;;;3.80;99.90;;;;;;5269657;28;20422;-81
2023/12/19 01:27:38;;;;;;;29.98;25.92;;;3.60;99.90;;;;;;5269719;28;20073;-85
2023/12/19 01:30:09;;;;;;;28.25;23.75;;;3.60;99.90;;;;;;5270958;28;20394;-83
2023/12/19 01:32:40;;;;;;;25.67;22.98;;;3.70;99.90;;;;;;5268843;28;20047;-86
2023/12/19 01:35:10;;;;;;;29.88;25.88;;;3.70;99.90;;;;;;5270330;28;20028;-81
2023/12/19 01:37:44;;;;;;;27.10;24.20;;;3.80;99.90;;;;;;5270582;28;20475;-77
2023/12/19 01:42:56;;;;;;;29.45;24.80;;;3.80;99.90;;;;;;5305934;22;20416;-86
2023/12/19 01:45:28;;;;;;;27.02;23.80;;;3.60;99.90;;;;;;5270172;28;20031;-85
2023/12/19 01:47:59;;;;;;;28.30;23.52;;;3.40;99.90;;;;;;5269400;28;20028;-82
2023/12/19 01:50:30;;;;;;;27.92;24.85;;;3.60;99.90;;;;;;5270255;28;20036;-86
2023/12/19 01:53:01;;;;;;;30.70;24.48;;;3.50;99.90;;;;;;5268719;28;20046;-85
2023/12/19 01:55:33;;;;;;;26.55;23.67;;;3.40;99.90;;;;;;5269167;28;20035;-85
2023/12/19 01:58:06;;;;;;;28.48;24.63;;;3.40;99.90;;;;;;5270571;28;20020;-84
2023/12/19 02:00:37;;;;;;;28.00;24.38;;;3.20;99.90;;;;;;5269042;28;20016;-86
2023/12/19 02:03:08;;;;;;;28.17;25.17;;;3.20;99.90;;;;;;5270254;28;20486;-86
2023/12/19 02:05:41;;;;;;;25.17;22.33;;;3.30;99.90;;;;;;5268908;28;20033;-86
2023/12/19 02:08:11;;;;;;;28.83;23.15;;;3.30;99.90;;;;;;5268905;28;20475;-81
2023/12/19 02:10:43;;;;;;;29.13;24.02;;;3.40;99.90;;;;;;5269955;28;20051;-76
2023/12/19 02:13:14;;;;;;;28.27;24.20;;;3.20;99.90;;;;;;5268981;28;20051;-86
2023/12/19 02:15:45;;;;;;;29.40;24.60;;;3.30;99.90;;;;;;5270047;28;20063;-85
2023/12/19 02:18:17;;;;;;;29.63;26.30;;;3.10;99.90;;;;;;5269835;28;20039;-85
2023/12/19 02:20:48;;;;;;;27.90;24.90;;;3.10;99.90;;;;;;5269981;28;20104;-87
2023/12/19 02:23:19;;;;;;;28.83;25.08;;;3.10;99.90;;;;;;5268550;28;20031;-85
2023/12/19 02:25:51;;;;;;;28.70;23.77;;;3.30;99.90;;;;;;5269788;28;20023;-85
2023/12/19 02:28:23;;;;;;;28.95;25.58;;;3.20;99.90;;;;;;5269930;28;20054;-77
2023/12/19 02:30:54;;;;;;;27.42;22.88;;;3.20;99.90;;;;;;5269524;28;20036;-86
2023/12/19 02:33:24;;;;;;;30.45;23.70;;;3.00;99.90;;;;;;5269851;28;20026;-78
2023/12/19 02:35:55;;;;;;;30.25;23.77;;;3.00;99.90;;;;;;5269479;28;20388;-84
2023/12/19 02:38:26;;;;;;;27.85;24.63;;;3.10;99.90;;;;;;5269089;28;20024;-86
2023/12/19 02:40:57;;;;;;;29.40;22.85;;;3.00;99.90;;;;;;5268735;28;20054;-86
2023/12/19 02:43:28;;;;;;;30.23;23.67;;;3.00;99.90;;;;;;5267952;28;20031;-87
2023/12/19 02:45:59;;;;;;;31.48;24.45;;;3.00;99.90;;;;;;5269613;28;20024;-87
2023/12/19 02:48:30;;;;;;;29.95;25.80;;;3.00;99.90;;;;;;5268474;28;20020;-87
2023/12/19 02:51:01;;;;;;;28.25;24.33;;;2.90;99.90;;;;;;5269641;28;20036;-86
2023/12/19 02:53:32;;;;;;;27.70;24.65;;;2.90;99.90;;;;;;5268347;28;20372;-87
2023/12/19 02:56:03;;;;;;;26.50;23.65;;;3.10;99.90;;;;;;5268964;28;20043;-86
2023/12/19 02:58:34;;;;;;;28.55;25.15;;;2.90;99.90;;;;;;5267437;28;20024;-87
2023/12/19 03:01:08;;;;;;;29.73;25.35;;;3.00;99.90;;;;;;5267865;28;20589;-86
2023/12/19 03:03:43;;;;;;;30.13;24.50;;;3.00;99.90;;;;;;5267917;28;20714;-86
2023/12/19 03:06:14;;;;;;;30.23;25.80;;;2.90;99.90;;;;;;5269240;28;20024;-86
2023/12/19 03:08:46;;;;;;;30.88;27.33;;;2.80;99.90;;;;;;5269242;28;20027;-85
2023/12/19 03:11:17;;;;;;;33.28;27.48;;;2.60;99.90;;;;;;5268898;28;20043;-85
2023/12/19 03:13:48;;;;;;;31.35;28.15;;;2.70;99.90;;;;;;5269292;28;20078;-85
2023/12/19 03:16:19;;;;;;;32.97;29.00;;;2.80;99.90;;;;;;5268747;28;20032;-86
2023/12/19 03:18:50;;;;;;;32.20;28.63;;;2.60;99.90;;;;;;5268840;28;20032;-86
2023/12/19 03:21:21;;;;;;;32.55;29.20;;;2.70;99.90;;;;;;5269072;28;20064;-85
2023/12/19 03:23:52;;;;;;;35.63;28.38;;;2.70;99.90;;;;;;5267883;28;20027;-84
2023/12/19 03:26:22;;;;;;;32.10;28.02;;;2.70;99.90;;;;;;5267857;28;20020;-85
2023/12/19 03:28:53;;;;;;;31.58;27.88;;;2.80;99.90;;;;;;5269021;28;20349;-83
2023/12/19 03:31:24;;;;;;;32.65;27.98;;;2.80;99.90;;;;;;5268643;28;20028;-86
2023/12/19 03:33:55;;;;;;;34.30;27.55;;;2.70;99.90;;;;;;5267375;28;20024;-86
2023/12/19 03:36:26;;;;;;;32.97;27.95;;;2.90;99.90;;;;;;5267563;28;20028;-86
2023/12/19 03:38:57;;;;;;;34.70;27.25;;;2.90;99.90;;;;;;5267205;28;20020;-86
2023/12/19 03:41:28;;;;;;;31.50;28.05;;;2.80;99.90;;;;;;5268271;28;20052;-86
2023/12/19 03:43:59;;;;;;;32.63;28.05;;;2.80;99.90;;;;;;5267640;28;20455;-87
2023/12/19 03:46:29;;;;;;;33.75;28.52;;;2.80;99.90;;;;;;5268977;28;20061;-84
2023/12/19 03:49:00;;;;;;;35.22;29.55;;;2.70;99.90;;;;;;5268951;28;20034;-86
2023/12/19 03:51:31;;;;;;;35.00;30.38;;;2.60;99.90;;;;;;5266852;28;20451;-81
2023/12/19 03:54:02;;;;;;;36.72;30.33;;;2.70;99.90;;;;;;5272520;28;20089;-85
2023/12/19 03:56:33;;;;;;;37.65;29.10;;;2.70;99.90;;;;;;5271462;28;20035;-84
2023/12/19 03:59:04;;;;;;;39.35;29.98;;;2.60;99.90;;;;;;5272715;28;20554;-85
2023/12/19 04:01:45;;;;;;;33.45;29.83;;;2.50;99.90;;;;;;5272786;28;20028;-86
2023/12/19 04:04:17;;;;;;;30.95;27.55;;;2.70;99.90;;;;;;5272501;28;20364;-86
2023/12/19 04:06:47;;;;;;;31.63;28.20;;;2.70;99.90;;;;;;5271480;28;20077;-86
2023/12/19 04:09:18;;;;;;;34.35;27.27;;;2.70;99.90;;;;;;5272687;28;20024;-82
2023/12/19 04:11:49;;;;;;;34.85;27.77;;;2.80;99.90;;;;;;5272336;28;20066;-86
2023/12/19 04:14:22;;;;;;;30.67;27.17;;;2.60;99.90;;;;;;5272200;28;20419;-87
2023/12/19 04:16:53;;;;;;;32.13;27.40;;;2.60;99.90;;;;;;5272356;28;20069;-86
2023/12/19 04:19:24;;;;;;;33.10;27.20;;;2.50;99.90;;;;;;5271181;28;20023;-86
2023/12/19 04:21:57;;;;;;;30.35;26.67;;;2.50;99.90;;;;;;5270936;28;20066;-85
2023/12/19 04:24:28;;;;;;;28.33;25.30;;;2.50;99.90;;;;;;5272416;28;20095;-85
2023/12/19 04:26:59;;;;;;;37.13;24.25;;;2.50;99.90;;;;;;5271047;28;20111;-85
2023/12/19 04:29:30;;;;;;;27.10;24.23;;;2.50;99.90;;;;;;5270789;28;20024;-83
2023/12/19 04:32:01;;;;;;;27.67;23.20;;;2.40;99.90;;;;;;5272123;28;20032;-86
2023/12/19 04:34:31;;;;;;;28.08;24.40;;;2.30;99.90;;;;;;5272104;28;20030;-78
2023/12/19 04:37:02;;;;;;;26.55;23.75;;;2.30;99.90;;;;;;5272339;28;20021;-86
2023/12/19 04:39:33;;;;;;;29.83;25.30;;;2.40;99.90;;;;;;5271910;28;20022;-83
2023/12/19 04:42:07;;;;;;;26.23;22.45;;;2.40;99.90;;;;;;5270305;28;20075;-83
2023/12/19 04:44:38;;;;;;;28.27;23.38;;;2.40;99.90;;;;;;5272150;28;20035;-85
2023/12/19 04:47:09;;;;;;;25.25;21.67;;;2.50;99.90;;;;;;5270717;28;20032;-85
2023/12/19 04:49:40;;;;;;;25.90;22.45;;;2.40;99.90;;;;;;5271604;28;20024;-85
2023/12/19 04:52:11;;;;;;;28.90;24.42;;;2.30;99.90;;;;;;5270318;28;20423;-85
2023/12/19 04:54:42;;;;;;;27.05;24.02;;;2.00;99.90;;;;;;5270372;28;20022;-81
2023/12/19 04:57:13;;;;;;;26.33;23.52;;;2.20;99.90;;;;;;5270383;28;20028;-84
2023/12/19 04:59:44;;;;;;;30.27;23.25;;;2.20;99.90;;;;;;5271475;28;20479;-86
2023/12/19 05:02:15;;;;;;;26.20;23.05;;;2.20;99.90;;;;;;5271315;28;20023;-85
2023/12/19 05:04:46;;;;;;;27.48;23.70;;;2.20;99.90;;;;;;5269793;28;20047;-79
2023/12/19 05:07:17;;;;;;;26.13;23.42;;;2.20;99.90;;;;;;5270959;28;20020;-86
2023/12/19 05:09:48;;;;;;;25.13;21.45;;;2.30;99.90;;;;;;5271213;28;20497;-85
2023/12/19 05:12:19;;;;;;;31.83;21.92;;;2.40;99.90;;;;;;5270721;28;20028;-85
2023/12/19 05:14:50;;;;;;;26.42;23.25;;;2.40;99.90;;;;;;5271210;28;20051;-84
2023/12/19 05:17:21;;;;;;;25.67;22.08;;;2.30;99.90;;;;;;5269970;28;20430;-82
2023/12/19 05:19:52;;;;;;;28.48;22.30;;;2.30;99.90;;;;;;5270901;28;20035;-79
2023/12/19 05:22:23;;;;;;;23.52;21.08;;;2.30;99.90;;;;;;5271013;28;20035;-79
2023/12/19 05:24:54;;;;;;;27.13;22.80;;;2.30;99.90;;;;;;5270923;28;20031;-84
2023/12/19 05:27:24;;;;;;;32.55;23.77;;;2.30;99.90;;;;;;5269272;28;20047;-84
2023/12/19 05:29:55;;;;;;;32.83;24.13;;;2.40;99.90;;;;;;5269136;28;20032;-84
2023/12/19 05:32:26;;;;;;;24.13;21.25;;;2.30;99.90;;;;;;5270480;28;20028;-85
2023/12/19 05:34:58;;;;;;;25.38;22.60;;;2.30;99.90;;;;;;5270476;28;20139;-84
2023/12/19 05:37:29;;;;;;;27.55;22.38;;;2.20;99.90;;;;;;5269396;28;20162;-85
2023/12/19 05:40:00;;;;;;;27.73;24.73;;;2.10;99.90;;;;;;5267851;28;20141;-85
2023/12/19 05:42:31;;;;;;;29.67;24.45;;;2.20;99.90;;;;;;5257290;28;20096;-84
2023/12/19 05:45:03;;;;;;;30.00;24.63;;;2.10;99.90;;;;;;5270545;28;20153;-78
2023/12/19 05:47:36;;;;;;;27.05;24.05;;;2.20;99.90;;;;;;5247763;28;20027;-83
2023/12/19 05:50:07;;;;;;;28.48;25.48;;;2.40;99.90;;;;;;5248104;28;20040;-81
2023/12/19 05:52:38;;;;;;;31.10;27.00;;;2.40;99.90;;;;;;5249558;28;20021;-84
2023/12/19 05:55:09;;;;;;;29.45;25.98;;;2.10;99.90;;;;;;5263869;28;20028;-75
2023/12/19 05:57:40;;;;;;;29.70;26.50;;;2.30;99.90;;;;;;5253949;28;20020;-78
2023/12/19 06:00:12;;;;;;;31.83;28.45;;;2.20;99.90;;;;;;5249207;28;20506;-78
2023/12/19 06:02:52;;;;;;;32.97;29.23;;;2.10;99.90;;;;;;5249275;28;20065;-82
2023/12/19 06:05:24;;;;;;;32.50;27.63;;;2.20;99.90;;;;;;5264564;28;20024;-83
2023/12/19 06:07:55;;;;;;;34.10;29.92;;;2.40;99.90;;;;;;5268618;28;20035;-84
2023/12/19 06:10:26;;;;;;;39.65;31.63;;;2.30;99.90;;;;;;5269410;28;20052;-83
2023/12/19 06:12:56;;;;;;;38.50;32.00;;;2.20;99.90;;;;;;5268787;28;20024;-79
2023/12/19 06:15:27;;;;;;;39.90;35.58;;;2.10;99.90;;;;;;5269275;28;20024;-84
2023/12/19 06:17:58;;;;;;;37.17;31.35;;;2.40;99.90;;;;;;5261936;28;20024;-82
2023/12/19 06:20:29;;;;;;;35.90;32.05;;;2.50;99.90;;;;;;5248597;28;20724;-75
2023/12/19 06:23:00;;;;;;;36.08;32.38;;;2.40;99.90;;;;;;5247207;28;20016;-79
2023/12/19 06:25:32;;;;;;;42.58;36.95;;;2.40;99.90;;;;;;5248564;28;20114;-80
2023/12/19 06:28:04;;;;;;;42.05;36.55;;;2.50;99.90;;;;;;5248210;28;20025;-79
2023/12/19 06:30:35;;;;;;;38.38;33.63;;;2.70;99.90;;;;;;5248352;28;20040;-79
2023/12/19 06:33:06;;;;;;;39.88;34.28;;;2.80;99.90;;;;;;5251884;28;20111;-80
2023/12/19 06:35:42;;;;;;;36.30;32.35;;;3.00;99.90;;;;;;5270017;28;20178;-81
2023/12/19 06:38:13;;;;;;;34.97;29.45;;;2.90;99.90;;;;;;5268836;28;20024;-83
2023/12/19 06:40:45;;;;;;;33.42;28.10;;;3.00;99.90;;;;;;5269049;28;20518;-85
2023/12/19 06:43:17;;;;;;;29.65;26.55;;;3.00;99.90;;;;;;5269534;28;20043;-81
2023/12/19 06:45:48;;;;;;;30.33;26.48;;;3.10;99.90;;;;;;5269069;28;20032;-81
2023/12/19 06:48:23;;;;;;;31.50;26.08;;;3.20;99.90;;;;;;5269305;28;20027;-83
2023/12/19 06:50:54;;;;;;;32.67;25.58;;;3.40;99.90;;;;;;5269035;28;20035;-84
2023/12/19 06:53:24;;;;;;;33.53;25.98;;;3.60;99.90;;;;;;5267225;28;20031;-83
2023/12/19 06:55:55;;;;;;;28.98;24.55;;;3.90;99.90;;;;;;5268977;28;20082;-82
2023/12/19 06:58:26;;;;;;;34.42;25.55;;;3.80;99.90;;;;;;5267581;28;20031;-82
2023/12/19 07:00:57;;;;;;;29.52;23.98;;;3.80;99.90;;;;;;5269127;28;20928;-84
2023/12/19 07:03:28;;;;;;;27.52;23.35;;;3.60;99.90;;;;;;5268191;28;20025;-83
2023/12/19 07:05:59;;;;;;;27.73;23.02;;;4.00;99.90;;;;;;5267922;28;20039;-83
2023/12/19 07:08:32;;;;;;;29.05;23.48;;;4.00;99.90;;;;;;5269503;28;20052;-85
2023/12/19 07:11:03;;;;;;;27.95;23.92;;;4.10;99.90;;;;;;5709428;22;20056;-84
2023/12/19 07:13:34;;;;;;;32.10;26.50;;;4.20;99.90;;;;;;5269342;28;20023;-85
2023/12/19 07:16:06;;;;;;;30.95;24.50;;;4.50;99.90;;;;;;5269699;28;20027;-85
2023/12/19 07:18:37;;;;;;;30.50;25.42;;;4.70;99.90;;;;;;5270143;28;20078;-84
2023/12/19 07:21:16;;;;;;;33.50;24.73;;;4.70;99.90;;;;;;5268938;28;20016;-83
2023/12/19 07:23:48;;;;;;;29.10;23.57;;;4.80;99.90;;;;;;5270908;28;20164;-84
2023/12/19 07:26:29;;;;;;;32.97;25.27;;;5.00;99.90;;;;;;5269633;28;20322;-82
2023/12/19 07:29:02;;;;;;;28.55;23.90;;;5.10;99.90;;;;;;5269931;28;20102;-80
2023/12/19 07:31:33;;;;;;;29.38;24.52;;;5.30;99.90;;;;;;5273213;28;20036;-82
2023/12/19 07:34:05;;;;;;;32.22;24.10;;;5.40;99.90;;;;;;5272503;28;20031;-86
2023/12/19 07:36:36;;;;;;;30.85;25.80;;;5.70;99.90;;;;;;5272585;28;20021;-80
2023/12/19 07:39:09;;;;;;;31.15;26.10;;;5.80;99.90;;;;;;5272981;28;20031;-87
2023/12/19 07:41:40;;;;;;;32.65;27.30;;;6.00;99.90;;;;;;5272334;28;20043;-84
2023/12/19 07:44:14;;;;;;;31.30;25.90;;;6.20;99.90;;;;;;5272969;28;20399;-85
2023/12/19 07:46:45;;;;;;;32.75;26.67;;;6.40;99.90;;;;;;5272169;28;20028;-83
2023/12/19 07:49:16;;;;;;;34.22;27.52;;;6.70;99.90;;;;;;5253269;28;20089;-86
2023/12/19 07:51:47;;;;;;;31.05;27.42;;;6.80;99.90;;;;;;5271435;28;20031;-86
2023/12/19 07:54:17;;;;;;;31.23;27.75;;;7.00;99.90;;;;;;5268748;28;20024;-84
2023/12/19 07:56:48;;;;;;;30.25;26.45;;;7.20;99.90;;;;;;5253657;28;20032;-87
2023/12/19 07:59:19;;;;;;;32.10;27.52;;;7.20;99.90;;;;;;5271112;28;20028;-86
2023/12/19 08:01:50;;;;;;;34.55;29.15;;;7.50;99.90;;;;;;5271898;28;20509;-76
2023/12/19 08:04:21;;;;;;;29.63;25.00;;;7.70;99.90;;;;;;5253520;28;20028;-82
2023/12/19 08:06:52;;;;;;;25.60;22.55;;;7.80;99.90;;;;;;5272513;28;20039;-88
2023/12/19 08:09:23;;;;;;;30.70;24.15;;;8.00;99.90;;;;;;5272100;28;20032;-75
2023/12/19 08:11:55;;;;;;;25.17;22.45;;;8.30;99.90;;;;;;5715956;22;20075;-86
2023/12/19 08:14:27;;;;;;;26.10;22.58;;;8.40;99.90;;;;;;5241857;28;20365;-88
2023/12/19 08:16:58;;;;;;;24.58;21.55;;;8.70;99.90;;;;;;5244502;28;20069;-84
2023/12/19 08:19:28;;;;;;;24.98;22.35;;;8.70;99.90;;;;;;5245190;28;20020;-86
2023/12/19 08:22:00;;;;;;;24.65;21.90;;;9.00;99.90;;;;;;5219258;28;20025;-85
2023/12/19 08:24:31;;;;;;;27.00;22.83;;;9.20;99.90;;;;;;5230952;28;20104;-84
2023/12/19 08:27:02;;;;;;;24.13;21.73;;;9.50;99.90;;;;;;5231245;28;20040;-88
2023/12/19 08:29:34;;;;;;;22.60;20.45;;;9.60;99.90;;;;;;5236426;28;20013;-83
2023/12/19 08:32:06;;;;;;;22.20;20.10;;;9.80;99.90;;;;;;5240040;28;20415;-78
2023/12/19 08:34:37;;;;;;;19.85;17.83;;;10.00;99.90;;;;;;5250678;28;20029;-84
2023/12/19 08:37:08;;;;;;;17.60;15.90;;;10.00;99.90;;;;;;5233754;28;20147;-88
2023/12/19 08:39:39;;;;;;;22.20;16.10;;;10.10;99.90;;;;;;5238042;28;20016;-88
2023/12/19 08:42:10;;;;;;;19.23;17.30;;;10.40;99.90;;;;;;5243661;28;20047;-88
2023/12/19 08:44:41;;;;;;;18.27;16.60;;;10.50;99.90;;;;;;5241332;28;20016;-86
2023/12/19 08:47:12;;;;;;;19.27;16.73;;;10.70;99.90;;;;;;5243989;28;20104;-84
2023/12/19 08:49:43;;;;;;;18.83;16.92;;;11.00;99.90;;;;;;5238716;28;20532;-82
2023/12/19 08:52:14;;;;;;;18.88;17.15;;;11.00;99.90;;;;;;5215505;28;20036;-87
2023/12/19 08:54:45;;;;;;;20.95;18.92;;;11.30;99.90;;;;;;5227221;28;20033;-85
2023/12/19 08:57:16;;;;;;;20.92;19.13;;;11.40;99.90;;;;;;5250524;28;20036;-85
2023/12/19 08:59:47;;;;;;;20.45;18.38;;;11.60;99.90;;;;;;5235261;28;20022;-85
2023/12/19 09:02:18;;;;;;;17.92;16.13;;;11.70;99.90;;;;;;5225632;28;20039;-84
2023/12/19 09:04:49;;;;;;;18.45;16.85;;;11.90;99.90;;;;;;5242945;28;20017;-81
2023/12/19 09:07:20;;;;;;;20.67;18.85;;;11.90;99.90;;;;;;5250862;28;20472;-74
2023/12/19 09:09:54;;;;;;;21.02;19.27;;;12.10;99.90;;;;;;5244939;28;20048;-87
2023/12/19 09:12:25;;;;;;;22.48;20.55;;;12.10;99.90;;;;;;5220197;28;20509;-81
2023/12/19 09:14:56;;;;;;;22.80;20.50;;;12.40;99.90;;;;;;5208912;28;20037;-75
2023/12/19 09:17:27;;;;;;;19.55;17.95;;;12.40;99.90;;;;;;5209018;28;20087;-83
2023/12/19 09:20:04;;;;;;;17.45;15.82;;;12.50;99.90;;;;;;5206961;28;20489;-86
2023/12/19 09:22:38;;;;;;;17.70;15.88;;;12.70;99.90;;;;;;5168409;28;20049;-82
2023/12/19 09:25:14;;;;;;;18.08;16.38;;;12.90;99.90;;;;;;5207418;28;20025;-86
2023/12/19 09:27:45;;;;;;;16.77;15.18;;;13.10;99.90;;;;;;5207759;28;20768;-75
2023/12/19 09:30:18;;;;;;;16.75;15.15;;;13.30;99.90;;;;;;5206206;28;20029;-84
2023/12/19 09:32:49;;;;;;;18.67;16.98;;;13.40;99.90;;;;;;5208779;28;20536;-83
2023/12/19 09:35:20;;;;;;;17.90;16.35;;;13.70;99.90;;;;;;5207383;28;20025;-84
2023/12/19 09:37:51;;;;;;;18.80;16.80;;;13.80;99.90;;;;;;5207852;28;20032;-84
2023/12/19 09:40:27;;;;;;;18.65;16.73;;;13.60;99.90;;;;;;5206959;28;20120;-85
2023/12/19 09:42:59;;;;;;;18.73;16.92;;;13.80;99.90;;;;;;5208325;28;20033;-84
2023/12/19 09:45:30;;;;;;;17.38;15.85;;;14.00;99.90;;;;;;5207883;28;20022;-86
2023/12/19 09:48:02;;;;;;;16.58;14.55;;;14.30;99.90;;;;;;5207472;28;20385;-85
2023/12/19 09:50:42;;;;;;;16.20;14.70;;;14.20;99.90;;;;;;5206282;28;20485;-85
2023/12/19 09:53:19;;;;;;;16.65;14.98;;;14.40;99.90;;;;;;5202946;28;20575;-77
2023/12/19 09:55:50;;;;;;;15.57;14.05;;;14.40;99.90;;;;;;5207415;28;20508;-83
2023/12/19 09:58:23;;;;;;;16.50;14.68;;;14.60;99.90;;;;;;5207922;28;20022;-88
2023/12/19 10:01:02;;;;;;;16.58;15.13;;;14.80;99.90;;;;;;5208129;28;20017;-86
2023/12/19 10:19:45;;;;;;;;;;;15.10;99.90;;;;;;5308832;27;20417;-86
2023/12/19 10:22:20;;;;;;;17.33;15.77;;;16.00;99.90;;;;;;5290253;28;19916;-87
2023/12/19 10:25:00;;;;;;;16.95;15.25;;;16.00;99.90;;;;;;5309191;28;20035;-86
2023/12/19 10:27:31;;;;;;;17.60;16.10;;;16.20;99.90;;;;;;5308244;27;20027;-83
2023/12/19 10:30:21;;;;;;;17.63;15.98;;;16.10;99.90;;;;;;5308031;27;20379;-81
2023/12/19 10:32:56;;;;;;;17.08;15.45;;;16.60;99.90;;;;;;5289776;28;20035;-85
2023/12/19 10:35:37;;;;;;;14.65;13.35;;;16.70;99.90;;;;;;5307861;27;20080;-85
2023/12/19 10:38:08;;;;;;;13.75;12.35;;;16.70;99.90;;;;;;5307394;27;20034;-86
2023/12/19 10:40:39;;;;;;;12.93;11.68;;;16.90;99.90;;;;;;5307605;28;20032;-86
2023/12/19 10:43:10;;;;;;;13.95;12.82;;;17.00;99.90;;;;;;5307544;27;20023;-83
2023/12/19 10:45:44;;;;;;;13.40;11.45;;;17.10;99.90;;;;;;5307485;27;20023;-86
2023/12/19 10:48:15;;;;;;;14.63;13.32;;;17.50;99.90;;;;;;5307058;27;20063;-84
2023/12/19 10:50:47;;;;;;;15.90;14.55;;;17.40;99.90;;;;;;5307359;27;20066;-88
2023/12/19 10:53:18;;;;;;;18.27;16.65;;;17.50;99.90;;;;;;5307576;27;20470;-76
2023/12/19 10:55:54;;;;;;;22.52;20.92;;;17.70;99.90;;;;;;5307668;27;20098;-77
2023/12/19 10:58:25;;;;;;;24.63;23.05;;;17.60;99.90;;;;;;5307607;28;20027;-76
2023/12/19 11:00:57;;;;;;;32.22;30.33;;;17.80;99.90;;;;;;5289205;28;20023;-87
2023/12/19 11:03:37;;;;;;;30.90;29.13;;;18.00;99.90;;;;;;5307423;27;20366;-86
2023/12/19 11:06:12;;;;;;;29.20;27.40;;;17.90;99.90;;;;;;5303620;28;20454;-77
2023/12/19 11:08:47;;;;;;;28.63;26.88;;;17.90;99.90;;;;;;5298794;28;20035;-77
2023/12/19 11:11:28;;;;;;;26.02;24.30;;;17.80;99.90;;;;;;5286459;28;20024;-80
2023/12/19 11:14:01;;;;;;;25.20;23.33;;;17.90;99.90;;;;;;5302022;27;20040;-81
2023/12/19 11:16:46;;;;;;;25.45;23.75;;;17.90;99.90;;;;;;5307754;28;20075;-83
2023/12/19 11:19:47;;;;;;;22.48;21.02;;;17.90;99.90;;;;;;5300373;27;20058;-78
2023/12/19 11:22:44;;;;;;;20.23;18.70;;;18.10;99.90;;;;;;5280661;28;20085;-84
2023/12/19 11:25:34;;;;;;;17.88;16.60;;;18.40;99.90;;;;;;5272115;28;20027;-82
2023/12/19 11:28:06;;;;;;;20.80;19.33;;;18.30;99.90;;;;;;5286999;28;20114;-80
2023/12/19 11:30:40;;;;;;;18.65;17.20;;;18.40;99.90;;;;;;5293331;28;20340;-77
2023/12/19 11:33:13;;;;;;;16.30;15.05;;;18.10;99.90;;;;;;5293185;28;20063;-79
2023/12/19 11:35:44;;;;;;;12.68;11.60;;;18.20;99.90;;;;;;5292921;28;20019;-79
2023/12/19 11:38:29;;;;;;;10.93;10.15;;;18.10;99.90;;;;;;5292806;28;20707;-80
2023/12/19 11:41:01;;;;;;;9.95;9.25;;;18.30;99.90;;;;;;5293058;28;20463;-82
2023/12/19 11:43:33;;;;;;;8.32;7.63;;;18.50;99.90;;;;;;5292964;28;20031;-82
2023/12/19 11:46:04;;;;;;;8.98;8.13;;;18.40;99.90;;;;;;5292436;28;20020;-81
2023/12/19 11:48:44;;;;;;;8.75;7.95;;;18.50;99.90;;;;;;5292254;28;20130;-83
2023/12/19 11:51:46;;;;;;;8.50;7.80;;;18.50;99.90;;;;;;5292580;28;20118;-76
2023/12/19 11:54:18;;;;;;;9.35;8.55;;;18.30;99.90;;;;;;5275607;28;20372;-78
2023/12/19 11:56:59;;;;;;;8.50;7.80;;;18.30;99.90;;;;;;5292413;28;20030;-78
2023/12/19 12:00:06;;;;;;;7.75;7.05;;;18.40;99.90;;;;;;5292422;28;20030;-78
2023/12/19 12:02:37;;;;;;;11.00;8.50;;;18.20;99.90;;;;;;5166017;28;20476;-82
2023/12/19 12:05:09;;;;;;;7.30;6.40;;;18.30;99.90;;;;;;5254541;28;20032;-81
2023/12/19 12:07:42;;;;;;;8.52;7.80;;;18.60;99.90;;;;;;5282751;28;20038;-79
2023/12/19 12:10:21;;;;;;;9.10;8.30;;;18.80;99.90;;;;;;5291999;28;20485;-82
2023/12/19 12:12:59;;;;;;;7.93;7.15;;;18.40;99.90;;;;;;5289127;28;20028;-85
2023/12/19 12:15:36;;;;;;;8.00;7.20;;;18.40;99.90;;;;;;5281539;28;20019;-82
2023/12/19 12:18:11;;;;;;;8.05;7.35;;;18.60;99.90;;;;;;5291669;28;20051;-83
2023/12/19 12:20:41;;;;;;;8.82;8.13;;;19.60;99.90;;;;;;5292096;28;20081;-76
2023/12/19 12:23:16;;;;;;;12.63;11.43;;;20.50;99.90;;;;;;5291849;28;20058;-78
2023/12/19 12:25:55;;;;;;;68.20;55.65;;;20.70;99.90;;;;;;5290902;28;20024;-80
2023/12/19 12:28:26;;;;;;;10.10;9.18;;;23.80;99.90;;;;;;5290521;28;20036;-80
2023/12/19 12:30:59;;;;;;;9.27;8.43;;;25.80;90.40;;;;;;5289890;28;20576;-78
2023/12/19 12:33:31;;;;;;;8.27;7.68;;;30.20;75.70;;;;;;5290757;28;20030;-78
2023/12/19 12:36:10;;;;;;;7.47;6.93;;;35.40;61.10;;;;;;5291310;28;20366;-75
2023/12/19 12:38:41;;;;;;;9.38;8.45;;;37.10;52.60;;;;;;5291037;28;20026;-79
2023/12/19 12:41:13;;;;;;;7.75;7.13;;;38.60;45.20;;;;;;5291701;28;20371;-76
2023/12/19 12:43:50;;;;;;;8.90;8.15;;;39.60;55.30;;;;;;5291517;28;20084;-75
2023/12/19 12:46:24;;;;;;;8.65;8.05;;;39.00;55.80;;;;;;5291131;28;20344;-78
2023/12/19 12:48:55;;;;;;;7.22;6.65;;;36.00;58.70;;;;;;5291034;28;20046;-74
2023/12/19 12:51:26;;;;;;;6.80;6.30;;;38.20;57.70;;;;;;5290683;28;20023;-78
2023/12/19 12:53:59;;;;;;;5.68;5.20;;;38.30;51.40;;;;;;5290494;28;20019;-76
2023/12/19 12:56:35;;;;;;;6.03;5.13;;;35.40;45.40;;;;;;5291507;28;20421;-78
2023/12/19 12:59:08;;;;;;;6.75;6.20;;;35.00;49.20;;;;;;5291223;28;20073;-76
2023/12/19 13:01:40;;;;;;;7.15;6.55;;;36.40;61.00;;;;;;5291157;28;20039;-78
2023/12/19 13:04:12;;;;;;;7.57;6.97;;;36.40;50.60;;;;;;5290520;28;20023;-80
2023/12/19 13:06:46;;;;;;;7.07;6.57;;;35.30;49.50;;;;;;5290247;28;20031;-77
2023/12/19 13:09:20;;;;;;;7.13;6.63;;;35.50;51.80;;;;;;5289088;28;20780;-75
2023/12/19 13:11:51;;;;;;;8.05;7.45;;;34.70;40.50;;;;;;5289532;28;20468;-76
2023/12/19 13:14:22;;;;;;;7.07;6.38;;;34.60;40.00;;;;;;5288727;28;20051;-76
2023/12/19 13:16:53;;;;;;;7.18;6.47;;;33.20;52.20;;;;;;5288750;28;20082;-76
2023/12/19 13:19:24;;;;;;;7.20;6.57;;;33.80;52.50;;;;;;5289307;28;20713;-77
2023/12/19 13:21:55;;;;;;;8.02;7.30;;;33.30;42.10;;;;;;5288760;28;20085;-76
2023/12/19 13:24:25;;;;;;;7.40;6.70;;;32.40;40.30;;;;;;5289241;28;20023;-76